Time;durP1;ratioP1;P1;durP2;ratioP2;P2;SDS_P1;SDS_P2;PMS_P1;PMS_P2;Temp;Humidity;BMP_temperature;BMP_pressure;BME280_temperature;BME280_humidity;BME280_pressure;Samples;Min_cycle;Max_cycle;Signal;HPM_P1;HPM_P2
2020/12/10 00:00:31;;;;;;;8.35;4.07;;;6.30;99.90;;;;;;5042387;28;20036;-65
2020/12/10 00:02:58;;;;;;;11.45;4.35;;;6.30;99.90;;;;;;5064830;28;20356;-65
2020/12/10 00:05:25;;;;;;;13.85;4.40;;;6.30;99.90;;;;;;5083744;28;20046;-65
2020/12/10 00:07:51;;;;;;;10.77;4.63;;;6.30;99.90;;;;;;5066875;28;20497;-65
2020/12/10 00:10:18;;;;;;;11.25;4.80;;;6.20;99.90;;;;;;5067089;28;20029;-65
2020/12/10 00:12:45;;;;;;;8.55;4.55;;;6.30;99.90;;;;;;5069311;28;20045;-65
2020/12/10 00:15:13;;;;;;;11.63;4.35;;;6.20;99.90;;;;;;5069372;28;20048;-65
2020/12/10 00:17:39;;;;;;;10.88;4.57;;;6.20;99.90;;;;;;5061384;28;20407;-65
2020/12/10 00:20:08;;;;;;;9.88;4.70;;;6.20;99.90;;;;;;5060071;28;20049;-65
2020/12/10 00:22:35;;;;;;;10.15;4.47;;;6.20;99.90;;;;;;5061477;28;20083;-65
2020/12/10 00:25:06;;;;;;;12.75;4.72;;;6.20;99.90;;;;;;5062826;28;20056;-65
2020/12/10 00:27:36;;;;;;;10.68;4.85;;;6.10;99.90;;;;;;5069342;28;20048;-65
2020/12/10 00:30:07;;;;;;;11.90;5.28;;;6.10;99.90;;;;;;5070949;28;20045;-65
2020/12/10 00:32:34;;;;;;;12.30;5.30;;;6.20;99.90;;;;;;5065158;28;20053;-65
2020/12/10 00:35:00;;;;;;;11.05;4.68;;;6.20;99.90;;;;;;5059663;28;20747;-66
2020/12/10 00:37:28;;;;;;;12.55;5.55;;;6.10;99.90;;;;;;5063825;28;20055;-65
2020/12/10 00:39:55;;;;;;;12.05;4.70;;;6.10;99.90;;;;;;5053366;28;20142;-65
2020/12/10 00:42:22;;;;;;;11.80;4.60;;;6.00;99.90;;;;;;5066342;28;20060;-65
2020/12/10 00:44:49;;;;;;;13.57;4.97;;;6.00;99.90;;;;;;5068612;28;20474;-65
2020/12/10 00:47:17;;;;;;;12.68;5.50;;;6.00;99.90;;;;;;5067925;28;20483;-65
2020/12/10 00:49:46;;;;;;;12.75;5.60;;;6.00;99.90;;;;;;5073200;28;20056;-65
2020/12/10 00:52:14;;;;;;;12.15;5.00;;;6.00;99.90;;;;;;5051250;28;20048;-65
2020/12/10 00:54:41;;;;;;;14.98;5.30;;;6.00;99.90;;;;;;5070016;28;20106;-65
2020/12/10 00:57:12;;;;;;;12.43;4.90;;;6.00;99.90;;;;;;5072035;28;20059;-65
2020/12/10 00:59:39;;;;;;;16.08;4.93;;;6.00;99.90;;;;;;5066914;28;20507;-65
2020/12/10 01:02:07;;;;;;;12.23;5.43;;;5.90;99.90;;;;;;5069460;28;20438;-65
2020/12/10 01:04:35;;;;;;;15.55;5.43;;;5.90;99.90;;;;;;5068668;28;20049;-65
2020/12/10 01:07:02;;;;;;;12.38;5.10;;;5.90;99.90;;;;;;5069454;28;20051;-65
2020/12/10 01:09:29;;;;;;;13.40;6.03;;;5.90;99.90;;;;;;5053819;28;20049;-65
2020/12/10 01:11:56;;;;;;;12.23;5.10;;;5.80;99.90;;;;;;5070077;28;20037;-65
2020/12/10 01:14:23;;;;;;;13.20;5.90;;;5.80;99.90;;;;;;5066566;28;20044;-65
2020/12/10 01:16:50;;;;;;;14.73;5.88;;;5.80;99.90;;;;;;5071790;28;20052;-65
2020/12/10 01:19:16;;;;;;;13.77;5.22;;;5.90;99.90;;;;;;5054701;28;20128;-65
2020/12/10 01:21:43;;;;;;;14.13;5.88;;;5.80;99.90;;;;;;5071529;28;20672;-65
2020/12/10 01:24:11;;;;;;;13.38;6.07;;;5.90;99.90;;;;;;5059407;28;20093;-65
2020/12/10 01:26:38;;;;;;;13.07;6.30;;;5.80;99.90;;;;;;5071398;28;20044;-65
2020/12/10 01:29:05;;;;;;;13.65;6.45;;;5.80;99.90;;;;;;5072516;28;20044;-65
2020/12/10 01:31:32;;;;;;;15.43;6.45;;;5.80;99.90;;;;;;5054847;28;20064;-65
2020/12/10 01:33:59;;;;;;;13.82;6.65;;;5.80;99.90;;;;;;5060237;28;20040;-65
2020/12/10 01:36:28;;;;;;;13.90;5.97;;;5.80;99.90;;;;;;5061014;28;20053;-65
2020/12/10 01:38:56;;;;;;;15.65;5.97;;;5.80;99.90;;;;;;5070748;28;20122;-65
2020/12/10 01:41:28;;;;;;;13.82;6.60;;;5.70;99.90;;;;;;5063989;28;20125;-65
2020/12/10 01:44:10;;;;;;;14.32;6.13;;;5.70;99.90;;;;;;5071730;28;20037;-65
2020/12/10 01:46:38;;;;;;;15.73;6.55;;;5.70;99.90;;;;;;5070426;28;20073;-65
2020/12/10 01:49:06;;;;;;;14.95;6.82;;;5.70;99.90;;;;;;5065028;28;20407;-65
2020/12/10 01:51:33;;;;;;;15.05;6.15;;;5.70;99.90;;;;;;5065014;28;20036;-65
2020/12/10 01:54:00;;;;;;;15.00;6.03;;;5.70;99.90;;;;;;5057396;28;20369;-65
2020/12/10 01:56:27;;;;;;;14.38;5.60;;;5.60;99.90;;;;;;5059919;28;20040;-65
2020/12/10 01:59:00;;;;;;;16.50;6.63;;;5.60;99.90;;;;;;5071250;28;20036;-65
2020/12/10 02:01:28;;;;;;;13.73;6.45;;;5.70;99.90;;;;;;5059522;28;20041;-65
2020/12/10 02:03:56;;;;;;;13.38;6.35;;;5.60;99.90;;;;;;5067474;28;20505;-65
2020/12/10 02:06:23;;;;;;;14.10;6.55;;;5.60;99.90;;;;;;5071873;28;20048;-65
2020/12/10 02:08:49;;;;;;;13.68;5.72;;;5.60;99.90;;;;;;5065288;28;20044;-65
2020/12/10 02:11:16;;;;;;;15.60;6.82;;;5.70;99.90;;;;;;5057562;28;20041;-65
2020/12/10 02:13:42;;;;;;;15.80;6.40;;;5.70;99.90;;;;;;5068548;28;20475;-65
2020/12/10 02:16:09;;;;;;;15.20;6.70;;;5.60;99.90;;;;;;5064292;28;20059;-65
2020/12/10 02:18:37;;;;;;;17.55;7.03;;;5.70;99.90;;;;;;5041212;28;20149;-65
2020/12/10 02:21:04;;;;;;;18.10;7.47;;;5.60;99.90;;;;;;5059901;28;20049;-65
2020/12/10 02:23:31;;;;;;;16.60;6.88;;;5.70;99.90;;;;;;5084270;28;20050;-65
2020/12/10 02:25:58;;;;;;;12.15;5.78;;;5.70;99.90;;;;;;5056797;28;20052;-65
2020/12/10 02:28:24;;;;;;;18.70;7.00;;;5.70;99.90;;;;;;5059535;28;20041;-65
2020/12/10 02:30:51;;;;;;;14.88;6.43;;;5.70;99.90;;;;;;5064749;28;20068;-64
2020/12/10 02:33:18;;;;;;;15.15;6.43;;;5.70;99.90;;;;;;5070972;28;20045;-64
2020/12/10 02:35:46;;;;;;;16.45;6.80;;;5.60;99.90;;;;;;5071089;28;20044;-64
2020/12/10 02:38:13;;;;;;;14.88;6.35;;;5.60;99.90;;;;;;5067676;28;20576;-65
2020/12/10 02:40:45;;;;;;;14.90;6.80;;;5.60;99.90;;;;;;5071908;28;20754;-65
2020/12/10 02:43:12;;;;;;;15.93;6.23;;;5.70;99.90;;;;;;5064047;28;20052;-65
2020/12/10 02:45:40;;;;;;;13.95;6.28;;;5.70;99.90;;;;;;5070633;28;20040;-65
2020/12/10 02:48:08;;;;;;;13.98;5.68;;;5.60;99.90;;;;;;5067118;28;20040;-65
2020/12/10 02:50:38;;;;;;;14.68;6.30;;;5.70;99.90;;;;;;5058996;28;20045;-65
2020/12/10 02:53:05;;;;;;;16.35;6.68;;;5.70;99.90;;;;;;5066857;28;20051;-65
2020/12/10 02:55:33;;;;;;;14.57;6.20;;;5.70;99.90;;;;;;5070296;28;20070;-65
2020/12/10 02:58:00;;;;;;;12.60;6.25;;;5.70;99.90;;;;;;5064706;28;20052;-65
2020/12/10 03:00:27;;;;;;;14.70;6.25;;;5.70;99.90;;;;;;5066594;28;20036;-65
2020/12/10 03:02:55;;;;;;;17.27;6.35;;;5.70;99.90;;;;;;5063559;28;20515;-65
2020/12/10 03:05:22;;;;;;;13.65;6.53;;;5.70;99.90;;;;;;5066223;28;20064;-65
2020/12/10 03:07:48;;;;;;;15.82;7.32;;;5.70;99.90;;;;;;5068444;28;20094;-65
2020/12/10 03:10:15;;;;;;;17.10;7.57;;;5.70;99.90;;;;;;5068441;28;20048;-65
2020/12/10 03:12:41;;;;;;;16.65;6.28;;;5.60;99.90;;;;;;5059761;28;20044;-65
2020/12/10 03:15:08;;;;;;;14.30;6.18;;;5.70;99.90;;;;;;5071628;28;20040;-65
2020/12/10 03:17:35;;;;;;;17.70;6.68;;;5.70;99.90;;;;;;5068504;28;20053;-64
2020/12/10 03:20:01;;;;;;;16.20;6.50;;;5.70;99.90;;;;;;5054861;28;20041;-65
2020/12/10 03:22:28;;;;;;;17.73;6.82;;;5.70;99.90;;;;;;5048525;28;20037;-65
2020/12/10 03:24:54;;;;;;;17.83;7.22;;;5.60;99.90;;;;;;5065303;28;20515;-65
2020/12/10 03:27:21;;;;;;;16.67;6.28;;;5.60;99.90;;;;;;5069626;28;20040;-65
2020/12/10 03:29:47;;;;;;;15.60;6.00;;;5.60;99.90;;;;;;5051170;28;20052;-64
2020/12/10 03:32:14;;;;;;;16.98;6.63;;;5.60;99.90;;;;;;5062037;28;20044;-64
2020/12/10 03:34:40;;;;;;;16.10;7.32;;;5.60;99.90;;;;;;5068216;28;20488;-64
2020/12/10 03:37:07;;;;;;;15.57;6.38;;;5.50;99.90;;;;;;5064608;28;20060;-64
2020/12/10 03:39:33;;;;;;;17.30;6.80;;;5.50;99.90;;;;;;5053911;28;20032;-65
2020/12/10 03:42:01;;;;;;;18.33;6.57;;;5.60;99.90;;;;;;5062534;28;20044;-65
2020/12/10 03:44:28;;;;;;;17.38;6.22;;;5.60;99.90;;;;;;5052270;28;20045;-65
2020/12/10 03:46:55;;;;;;;14.73;5.90;;;5.60;99.90;;;;;;5060954;28;20045;-65
2020/12/10 03:49:22;;;;;;;14.93;6.43;;;5.50;99.90;;;;;;5065235;28;20538;-65
2020/12/10 03:51:49;;;;;;;16.23;5.75;;;5.60;99.90;;;;;;5053976;28;20117;-65
2020/12/10 03:54:16;;;;;;;13.30;5.75;;;5.60;99.90;;;;;;5074295;28;20047;-65
2020/12/10 03:56:43;;;;;;;13.18;6.00;;;5.50;99.90;;;;;;5073607;28;20048;-65
2020/12/10 03:59:10;;;;;;;12.45;5.85;;;5.50;99.90;;;;;;5072097;28;20399;-65
2020/12/10 04:01:36;;;;;;;15.32;6.03;;;5.60;99.90;;;;;;5068957;28;20827;-65
2020/12/10 04:04:03;;;;;;;14.27;5.85;;;5.60;99.90;;;;;;5065038;28;20076;-65
2020/12/10 04:06:30;;;;;;;12.18;5.75;;;5.50;99.90;;;;;;5055614;28;20041;-65
2020/12/10 04:08:58;;;;;;;13.35;5.95;;;5.60;99.90;;;;;;5048533;28;20049;-65
2020/12/10 04:11:24;;;;;;;11.00;5.20;;;5.60;99.90;;;;;;5071691;28;20048;-64
2020/12/10 04:13:52;;;;;;;10.88;4.72;;;5.60;99.90;;;;;;5071712;28;20037;-65
2020/12/10 04:16:19;;;;;;;11.40;4.53;;;5.60;99.90;;;;;;5061507;28;20057;-65
2020/12/10 04:18:46;;;;;;;9.52;4.85;;;5.60;99.90;;;;;;5070022;28;20040;-65
2020/12/10 04:21:12;;;;;;;13.15;5.22;;;5.60;99.90;;;;;;5064849;28;20092;-65
2020/12/10 04:23:40;;;;;;;10.10;4.70;;;5.60;99.90;;;;;;5042392;28;20037;-65
2020/12/10 04:26:07;;;;;;;9.75;4.60;;;5.60;99.90;;;;;;5071792;28;20514;-65
2020/12/10 04:28:33;;;;;;;10.00;4.75;;;5.60;99.90;;;;;;5066818;28;20056;-65
2020/12/10 04:31:00;;;;;;;11.23;4.65;;;5.60;99.90;;;;;;5062954;28;20045;-65
2020/12/10 04:33:26;;;;;;;9.20;4.43;;;5.60;99.90;;;;;;5069307;28;20040;-65
2020/12/10 04:35:53;;;;;;;10.18;4.60;;;5.60;99.90;;;;;;5050346;28;20045;-65
2020/12/10 04:38:20;;;;;;;11.02;4.90;;;5.60;99.90;;;;;;5066900;28;20056;-65
2020/12/10 04:40:47;;;;;;;12.38;5.47;;;5.60;99.90;;;;;;5069621;28;20040;-65
2020/12/10 04:43:15;;;;;;;12.10;5.43;;;5.60;99.90;;;;;;5072104;28;20047;-65
2020/12/10 04:45:42;;;;;;;14.88;5.80;;;5.60;99.90;;;;;;5064662;28;20060;-65
2020/12/10 04:48:08;;;;;;;11.30;6.03;;;5.60;99.90;;;;;;5087588;28;20064;-65
2020/12/10 04:50:37;;;;;;;11.68;6.05;;;5.50;99.90;;;;;;5071574;28;20055;-65
2020/12/10 04:57:57;;;;;;;12.23;5.13;;;5.50;99.90;;;;;;5064923;28;20048;-65
2020/12/10 05:00:24;;;;;;;16.05;6.35;;;5.50;99.90;;;;;;5068862;28;20040;-65
2020/12/10 05:02:51;;;;;;;17.35;6.93;;;5.50;99.90;;;;;;5069989;28;20049;-65
2020/12/10 05:05:33;;;;;;;17.33;7.47;;;5.50;99.90;;;;;;5067191;28;20060;-65
2020/12/10 05:08:01;;;;;;;17.52;8.00;;;5.40;99.90;;;;;;5055977;28;20057;-64
2020/12/10 05:10:28;;;;;;;14.20;6.60;;;5.40;99.90;;;;;;5069508;28;20143;-64
2020/12/10 05:13:22;;;;;;;18.88;7.43;;;5.40;99.90;;;;;;5068681;28;20044;-64
2020/12/10 05:15:48;;;;;;;16.70;6.25;;;5.40;99.90;;;;;;5064793;28;20053;-64
2020/12/10 05:18:16;;;;;;;14.30;7.03;;;5.40;99.90;;;;;;5065072;28;20411;-64
2020/12/10 05:20:55;;;;;;;17.80;8.02;;;5.50;99.90;;;;;;5066009;28;20579;-64
2020/12/10 05:23:32;;;;;;;15.35;7.47;;;5.50;99.90;;;;;;5087655;28;20052;-64
2020/12/10 05:26:02;;;;;;;19.55;8.32;;;5.50;99.90;;;;;;5071908;28;20041;-65
2020/12/10 05:28:39;;;;;;;16.13;7.57;;;5.50;99.90;;;;;;5066607;28;20028;-65
2020/12/10 05:31:10;;;;;;;12.35;5.47;;;5.60;99.90;;;;;;5070181;28;20503;-64
2020/12/10 05:33:54;;;;;;;11.57;5.43;;;5.60;99.90;;;;;;5054716;28;20617;-65
2020/12/10 05:36:22;;;;;;;11.48;4.40;;;5.60;99.90;;;;;;5071501;28;20036;-65
2020/12/10 05:39:08;;;;;;;9.45;3.38;;;5.50;99.90;;;;;;5071251;28;21652;-65
2020/12/10 05:41:37;;;;;;;9.68;3.90;;;5.50;99.90;;;;;;5071377;28;20048;-65
2020/12/10 05:44:18;;;;;;;7.40;3.40;;;5.50;99.90;;;;;;5059009;28;20164;-64
2020/12/10 05:46:46;;;;;;;9.95;4.18;;;5.50;99.90;;;;;;5074016;28;20048;-64
2020/12/10 05:49:14;;;;;;;7.53;3.13;;;5.50;99.90;;;;;;5067408;28;20044;-64
2020/12/10 05:51:41;;;;;;;4.85;1.40;;;5.40;99.90;;;;;;5053826;28;20094;-64
2020/12/10 05:54:10;;;;;;;2.15;0.80;;;5.40;99.90;;;;;;5065413;28;20048;-64
2020/12/10 05:56:50;;;;;;;2.05;0.70;;;5.20;99.90;;;;;;5068207;28;20045;-65
2020/12/10 05:59:18;;;;;;;2.60;0.70;;;5.10;99.90;;;;;;5068204;28;20044;-64
2020/12/10 06:01:47;;;;;;;2.15;0.80;;;5.00;99.90;;;;;;5060194;28;20051;-67
2020/12/10 06:04:14;;;;;;;2.10;0.80;;;5.00;99.90;;;;;;5070335;28;20091;-64
2020/12/10 06:06:40;;;;;;;2.03;1.10;;;4.90;99.90;;;;;;5070100;28;20044;-64
2020/12/10 06:09:08;;;;;;;2.65;0.98;;;4.90;99.90;;;;;;5040100;28;20048;-64
2020/12/10 06:11:34;;;;;;;2.83;1.00;;;4.90;99.90;;;;;;5070135;28;20047;-64
2020/12/10 06:14:06;;;;;;;2.72;1.20;;;4.80;99.90;;;;;;5068940;28;20108;-64
2020/12/10 06:16:34;;;;;;;2.42;0.75;;;4.80;99.90;;;;;;5066277;28;20049;-64
2020/12/10 06:19:05;;;;;;;1.52;0.70;;;4.70;99.90;;;;;;5062775;28;20052;-65
2020/12/10 06:21:35;;;;;;;1.35;0.70;;;4.60;99.90;;;;;;5057671;28;20128;-64
2020/12/10 06:24:23;;;;;;;1.77;0.50;;;4.60;99.90;;;;;;5068874;28;20041;-64
2020/12/10 06:26:51;;;;;;;1.27;0.57;;;4.60;99.90;;;;;;5057867;28;20419;-64
2020/12/10 06:29:20;;;;;;;1.92;0.50;;;4.50;99.90;;;;;;5059948;28;20401;-64
2020/12/10 06:32:00;;;;;;;1.38;0.60;;;4.40;99.90;;;;;;5069306;28;20418;-64
2020/12/10 06:34:47;;;;;;;2.53;0.80;;;4.40;99.90;;;;;;5070356;28;20068;-64
2020/12/10 06:37:24;;;;;;;3.42;0.57;;;4.40;99.90;;;;;;5061796;28;20048;-64
2020/12/10 06:39:59;;;;;;;0.85;0.40;;;4.30;99.90;;;;;;5068333;28;20094;-64
2020/12/10 06:42:46;;;;;;;2.05;0.30;;;4.30;99.90;;;;;;5050722;28;20056;-64
2020/12/10 06:45:31;;;;;;;1.05;0.38;;;4.30;99.90;;;;;;5056318;28;20044;-64
2020/12/10 06:48:00;;;;;;;4.30;0.60;;;4.20;99.90;;;;;;5067560;28;20044;-65
2020/12/10 06:50:37;;;;;;;1.80;0.65;;;4.20;99.90;;;;;;5069620;28;20149;-65
2020/12/10 06:53:11;;;;;;;1.88;0.70;;;4.20;99.90;;;;;;5068342;28;20045;-64
2020/12/10 06:55:59;;;;;;;1.38;0.70;;;4.20;99.90;;;;;;5062673;28;20040;-64
2020/12/10 06:58:34;;;;;;;2.80;0.80;;;4.20;99.90;;;;;;5067105;28;20044;-65
2020/12/10 07:01:18;;;;;;;3.83;0.75;;;4.20;99.90;;;;;;5054902;28;20037;-65
2020/12/10 07:03:45;;;;;;;3.28;0.68;;;4.10;99.90;;;;;;5061408;28;20049;-65
2020/12/10 07:06:21;;;;;;;1.65;0.73;;;4.10;99.90;;;;;;5068597;28;20032;-61
2020/12/10 07:09:15;;;;;;;2.13;0.73;;;4.20;99.90;;;;;;5063151;28;20725;-61
2020/12/10 07:11:44;;;;;;;2.33;0.73;;;4.20;99.90;;;;;;5077954;28;20052;-62
2020/12/10 07:14:27;;;;;;;5.13;1.25;;;4.20;99.90;;;;;;5069663;28;20040;-61
2020/12/10 07:16:55;;;;;;;3.08;1.60;;;4.20;99.90;;;;;;5067242;28;20059;-62
2020/12/10 07:19:23;;;;;;;3.40;1.45;;;4.30;99.90;;;;;;5065983;28;20064;-62
2020/12/10 07:21:50;;;;;;;4.00;2.00;;;4.30;99.90;;;;;;5067902;28;20553;-62
2020/12/10 07:24:17;;;;;;;5.40;1.73;;;4.20;99.90;;;;;;5068548;28;20114;-62
2020/12/10 07:26:43;;;;;;;4.72;1.63;;;4.20;99.90;;;;;;5069002;28;20502;-61
2020/12/10 07:29:10;;;;;;;4.35;1.90;;;4.30;99.90;;;;;;5064764;28;20091;-61
2020/12/10 07:31:36;;;;;;;8.95;3.90;;;4.40;99.90;;;;;;5069037;28;20052;-61
2020/12/10 07:34:03;;;;;;;13.82;6.95;;;4.40;99.90;;;;;;5068986;28;20037;-62
2020/12/10 07:36:31;;;;;;;9.50;4.72;;;4.40;99.90;;;;;;5068853;28;20033;-62
2020/12/10 07:38:58;;;;;;;11.02;5.13;;;4.50;99.90;;;;;;5063834;28;20040;-61
2020/12/10 07:41:35;;;;;;;10.32;4.78;;;4.40;99.90;;;;;;5063787;28;20060;-61
2020/12/10 07:44:02;;;;;;;9.68;4.93;;;4.40;99.90;;;;;;5067423;28;20029;-61
2020/12/10 07:46:36;;;;;;;9.00;3.95;;;4.30;99.90;;;;;;5065303;28;20048;-61
2020/12/10 07:49:04;;;;;;;11.88;5.82;;;4.40;99.90;;;;;;5066422;28;20361;-63
2020/12/10 07:51:30;;;;;;;9.07;4.20;;;4.30;99.90;;;;;;5063712;28;20518;-64
2020/12/10 07:54:02;;;;;;;5.00;2.50;;;4.30;99.90;;;;;;5069179;28;20723;-64
2020/12/10 07:56:31;;;;;;;6.47;2.67;;;4.20;99.90;;;;;;5068940;28;20048;-62
2020/12/10 07:59:06;;;;;;;4.28;2.15;;;4.20;99.90;;;;;;5062752;28;20086;-62
2020/12/10 08:02:05;;;;;;;2.72;1.48;;;4.20;99.90;;;;;;5066188;28;20052;-62
2020/12/10 08:04:33;;;;;;;3.80;1.90;;;4.20;99.90;;;;;;5058012;28;20084;-61
2020/12/10 08:06:59;;;;;;;2.85;1.25;;;4.20;99.90;;;;;;5069244;28;20455;-61
2020/12/10 08:09:26;;;;;;;10.18;3.75;;;4.20;99.90;;;;;;5064247;28;20114;-62
2020/12/10 08:11:54;;;;;;;14.43;5.70;;;4.20;99.90;;;;;;5066277;28;20045;-62
2020/12/10 08:14:28;;;;;;;19.70;7.55;;;4.20;99.90;;;;;;5057737;28;20028;-62
2020/12/10 08:16:56;;;;;;;9.13;3.65;;;4.20;99.90;;;;;;5056756;28;20177;-62
2020/12/10 08:19:27;;;;;;;25.92;8.93;;;4.10;99.90;;;;;;5064266;28;20564;-62
2020/12/10 08:21:54;;;;;;;9.90;4.07;;;4.10;99.90;;;;;;5051294;28;20113;-63
2020/12/10 08:24:41;;;;;;;8.35;3.55;;;4.20;99.90;;;;;;5060887;28;20118;-62
2020/12/10 08:27:16;;;;;;;5.13;2.70;;;4.20;99.90;;;;;;5065980;28;20052;-63
2020/12/10 08:30:11;;;;;;;10.77;4.00;;;4.10;99.90;;;;;;5063889;28;20056;-63
2020/12/10 08:32:50;;;;;;;6.97;3.17;;;4.20;99.90;;;;;;5065183;28;20052;-63
2020/12/10 08:35:18;;;;;;;8.63;3.88;;;4.10;99.90;;;;;;5069878;28;20090;-64
2020/12/10 08:37:45;;;;;;;11.23;4.53;;;4.10;99.90;;;;;;5052427;28;20410;-63
2020/12/10 08:40:12;;;;;;;10.07;4.35;;;3.90;99.90;;;;;;5066368;28;20040;-63
2020/12/10 08:42:39;;;;;;;28.70;10.45;;;4.00;99.90;;;;;;5065012;28;20040;-64
2020/12/10 08:45:06;;;;;;;15.05;8.02;;;4.00;99.90;;;;;;5072812;28;20048;-61
2020/12/10 08:47:35;;;;;;;11.27;4.40;;;3.90;99.90;;;;;;5065277;28;20046;-62
2020/12/10 08:50:22;;;;;;;56.65;19.45;;;4.00;99.90;;;;;;5060905;28;20036;-63
2020/12/10 08:53:11;;;;;;;36.72;12.30;;;4.00;99.90;;;;;;5062725;28;20052;-63
2020/12/10 08:55:45;;;;;;;123.72;35.40;;;4.10;99.90;;;;;;5057610;28;20041;-62
2020/12/10 08:58:23;;;;;;;75.07;20.98;;;4.20;99.90;;;;;;5065566;28;20032;-61
2020/12/10 09:00:52;;;;;;;16.63;6.32;;;4.20;99.90;;;;;;5045748;28;20045;-65
2020/12/10 09:03:20;;;;;;;47.92;14.02;;;4.10;99.90;;;;;;5050314;28;20041;-64
2020/12/10 09:05:47;;;;;;;26.98;9.63;;;4.10;99.90;;;;;;5060020;28;20403;-61
2020/12/10 09:08:13;;;;;;;23.67;9.73;;;4.10;99.90;;;;;;5057354;28;20101;-62
2020/12/10 09:10:40;;;;;;;22.67;9.25;;;4.10;99.90;;;;;;5064229;28;20053;-63
2020/12/10 09:13:10;;;;;;;21.42;7.95;;;4.00;99.90;;;;;;5061717;28;20102;-64
2020/12/10 09:15:42;;;;;;;22.23;6.43;;;4.00;99.90;;;;;;5066450;28;20575;-64
2020/12/10 09:18:12;;;;;;;15.85;5.55;;;3.90;99.90;;;;;;5062369;28;20132;-64
2020/12/10 09:20:40;;;;;;;14.63;6.13;;;4.00;99.90;;;;;;5067613;28;20045;-64
2020/12/10 09:23:10;;;;;;;22.98;8.82;;;4.00;99.90;;;;;;5057380;28;20040;-64
2020/12/10 09:25:38;;;;;;;23.13;9.07;;;4.00;99.90;;;;;;5060662;28;20174;-64
2020/12/10 09:28:06;;;;;;;13.73;6.20;;;4.10;99.90;;;;;;5059072;28;20041;-65
2020/12/10 09:30:33;;;;;;;18.38;7.57;;;4.10;99.90;;;;;;5060012;28;20068;-63
2020/12/10 09:32:59;;;;;;;15.88;6.65;;;4.10;99.90;;;;;;5060196;28;20119;-63
2020/12/10 09:35:26;;;;;;;14.77;5.75;;;4.10;99.90;;;;;;5053642;28;20044;-62
2020/12/10 09:37:54;;;;;;;15.25;6.00;;;4.10;99.90;;;;;;5060918;28;20048;-62
2020/12/10 09:40:20;;;;;;;15.98;6.53;;;4.00;99.90;;;;;;5055915;28;20053;-64
2020/12/10 09:42:48;;;;;;;18.98;7.00;;;3.90;99.90;;;;;;5066907;28;20044;-64
2020/12/10 09:45:16;;;;;;;15.80;6.63;;;3.90;99.90;;;;;;5055155;28;20047;-64
2020/12/10 09:47:46;;;;;;;21.80;7.53;;;3.80;99.90;;;;;;5061292;28;20047;-64
2020/12/10 09:50:20;;;;;;;14.15;5.55;;;3.90;99.90;;;;;;5060417;28;20041;-64
2020/12/10 09:52:55;;;;;;;16.55;6.25;;;3.90;99.90;;;;;;5059764;28;20048;-64
2020/12/10 09:56:13;;;;;;;16.52;6.78;;;3.90;99.90;;;;;;5061129;28;22123;-64
2020/12/10 09:58:11;;;;;;;12.75;5.13;;;3.90;99.90;;;;;;5042377;28;20061;-64
2020/12/10 10:00:38;;;;;;;15.80;6.57;;;3.90;99.90;;;;;;5054260;28;20677;-64
2020/12/10 10:03:08;;;;;;;14.85;6.00;;;4.00;99.90;;;;;;5053559;28;20079;-64
2020/12/10 10:05:53;;;;;;;12.93;4.93;;;4.00;99.90;;;;;;5053671;28;20051;-64
2020/12/10 10:08:23;;;;;;;16.63;5.28;;;4.00;99.90;;;;;;5062180;28;20050;-64
2020/12/10 10:10:50;;;;;;;13.63;5.80;;;4.00;99.90;;;;;;5061002;28;20559;-64
2020/12/10 10:13:17;;;;;;;15.48;5.38;;;4.00;99.90;;;;;;5059911;28;20466;-64
2020/12/10 10:15:45;;;;;;;14.45;6.25;;;4.00;99.90;;;;;;5062815;28;20056;-64
2020/12/10 10:18:12;;;;;;;14.23;6.63;;;4.10;99.90;;;;;;5054592;28;20045;-64
2020/12/10 10:20:39;;;;;;;12.27;5.38;;;4.20;99.90;;;;;;5059886;28;20449;-64
2020/12/10 10:23:05;;;;;;;16.08;5.45;;;4.20;99.90;;;;;;5059385;28;20040;-64
2020/12/10 10:25:32;;;;;;;12.25;5.63;;;4.10;99.90;;;;;;5053503;28;20071;-64
2020/12/10 10:28:03;;;;;;;16.20;5.28;;;4.10;99.90;;;;;;5062590;28;20134;-64
2020/12/10 10:30:30;;;;;;;16.90;5.55;;;4.10;99.90;;;;;;5060827;28;20072;-63
2020/12/10 10:32:57;;;;;;;15.70;6.03;;;4.00;99.90;;;;;;5055070;28;20110;-63
2020/12/10 10:35:24;;;;;;;16.08;6.40;;;4.00;99.90;;;;;;5054458;28;20052;-64
2020/12/10 10:37:52;;;;;;;15.57;6.03;;;4.10;99.90;;;;;;5059469;28;20037;-64
2020/12/10 10:40:19;;;;;;;15.80;6.38;;;4.00;99.90;;;;;;5053729;28;20037;-63
2020/12/10 10:42:46;;;;;;;17.92;6.93;;;4.10;99.90;;;;;;5079611;28;20119;-63
2020/12/10 10:45:13;;;;;;;17.63;6.50;;;4.10;99.90;;;;;;5079240;28;20063;-63
2020/12/10 10:47:40;;;;;;;14.80;6.18;;;4.20;99.90;;;;;;5057865;28;20446;-63
2020/12/10 10:50:06;;;;;;;22.30;7.80;;;4.20;99.90;;;;;;5062970;28;20488;-60
2020/12/10 10:52:33;;;;;;;14.73;6.22;;;4.20;99.90;;;;;;5062538;28;20204;-63
2020/12/10 10:54:59;;;;;;;17.17;5.75;;;4.10;99.90;;;;;;5058588;28;20041;-63
2020/12/10 10:57:26;;;;;;;18.15;6.38;;;4.20;99.90;;;;;;5055877;28;20094;-64
2020/12/10 10:59:52;;;;;;;17.33;6.68;;;4.20;99.90;;;;;;5053872;28;20049;-64
2020/12/10 11:02:19;;;;;;;15.05;5.78;;;4.20;99.90;;;;;;5058021;28;20037;-64
2020/12/10 11:04:46;;;;;;;14.40;6.20;;;4.20;99.90;;;;;;5058755;28;20137;-64
2020/12/10 11:07:12;;;;;;;15.80;6.15;;;4.20;99.90;;;;;;5054683;28;20054;-64
2020/12/10 11:09:39;;;;;;;16.73;6.15;;;4.20;99.90;;;;;;5055842;28;20048;-64
2020/12/10 11:12:06;;;;;;;14.38;6.22;;;4.20;99.90;;;;;;5062194;28;20048;-64
2020/12/10 11:14:32;;;;;;;14.40;5.82;;;4.20;99.90;;;;;;5059014;28;20509;-65
2020/12/10 11:16:59;;;;;;;16.38;5.78;;;4.20;99.90;;;;;;5065785;28;20049;-65
2020/12/10 11:19:25;;;;;;;18.58;6.47;;;4.10;99.90;;;;;;5060937;28;20044;-65
2020/12/10 11:21:52;;;;;;;17.20;6.38;;;4.10;99.90;;;;;;5061260;28;20040;-66
2020/12/10 11:24:18;;;;;;;15.50;6.75;;;4.10;99.90;;;;;;5061396;28;20044;-64
2020/12/10 11:26:49;;;;;;;16.10;6.22;;;4.10;99.90;;;;;;5060477;28;20037;-64
2020/12/10 11:29:16;;;;;;;15.70;5.78;;;4.10;99.90;;;;;;5060250;28;20518;-64
2020/12/10 11:31:43;;;;;;;11.20;4.72;;;4.20;99.90;;;;;;5058797;28;20041;-65
2020/12/10 11:34:09;;;;;;;15.45;5.75;;;4.20;99.90;;;;;;5062674;28;20074;-64
2020/12/10 11:36:36;;;;;;;13.32;5.40;;;4.20;99.90;;;;;;5058118;28;20439;-64
2020/12/10 11:39:03;;;;;;;13.75;5.22;;;4.30;99.90;;;;;;5053675;28;20044;-64
2020/12/10 11:41:29;;;;;;;14.48;4.80;;;4.20;99.90;;;;;;5067298;28;20044;-64
2020/12/10 11:43:56;;;;;;;14.85;5.57;;;4.30;99.90;;;;;;5059240;28;20045;-64
2020/12/10 11:46:23;;;;;;;18.30;6.72;;;4.30;99.90;;;;;;5063530;28;20044;-63
2020/12/10 11:48:49;;;;;;;14.88;6.00;;;4.20;99.90;;;;;;5058768;28;20056;-64
2020/12/10 11:51:17;;;;;;;18.30;5.93;;;4.20;99.90;;;;;;5066106;28;20053;-64
2020/12/10 11:53:43;;;;;;;22.88;6.65;;;4.20;99.90;;;;;;5066644;28;20052;-63
2020/12/10 11:56:10;;;;;;;16.27;5.82;;;4.20;99.90;;;;;;5057942;28;20041;-64
2020/12/10 11:58:36;;;;;;;15.63;5.50;;;4.20;99.90;;;;;;5064180;28;20041;-65
2020/12/10 12:01:03;;;;;;;20.63;6.82;;;4.10;99.90;;;;;;5054913;28;20057;-64
2020/12/10 12:03:30;;;;;;;20.60;6.93;;;4.20;99.90;;;;;;5047648;28;20531;-63
2020/12/10 12:05:56;;;;;;;19.45;6.53;;;4.20;99.90;;;;;;5048620;28;20411;-64
2020/12/10 12:08:27;;;;;;;17.17;6.18;;;4.20;99.90;;;;;;5052112;28;20072;-63
2020/12/10 12:10:59;;;;;;;17.23;6.45;;;4.20;99.90;;;;;;5062841;28;20064;-64
2020/12/10 12:13:25;;;;;;;18.83;6.25;;;4.10;99.90;;;;;;5055627;28;20049;-64
2020/12/10 12:15:52;;;;;;;17.00;6.28;;;4.10;99.90;;;;;;5065319;28;20106;-64
2020/12/10 12:18:19;;;;;;;16.17;6.45;;;4.10;99.90;;;;;;5065182;28;20503;-64
2020/12/10 12:20:46;;;;;;;16.45;6.50;;;4.10;99.90;;;;;;5061173;28;20086;-63
2020/12/10 12:23:13;;;;;;;16.25;5.75;;;4.10;99.90;;;;;;5064974;28;20081;-64
2020/12/10 12:25:39;;;;;;;15.23;6.82;;;4.10;99.90;;;;;;5067542;28;20554;-64
2020/12/10 12:28:06;;;;;;;17.15;6.40;;;4.10;99.90;;;;;;5049222;28;20399;-63
2020/12/10 12:30:33;;;;;;;14.80;6.05;;;4.00;99.90;;;;;;5061001;28;20049;-64
2020/12/10 12:33:00;;;;;;;20.65;7.00;;;4.10;99.90;;;;;;5060549;28;20036;-64
2020/12/10 12:35:27;;;;;;;17.08;6.55;;;4.10;99.90;;;;;;5068205;28;20048;-64
2020/12/10 12:37:54;;;;;;;21.02;7.22;;;4.00;99.90;;;;;;5064476;28;20574;-64
2020/12/10 12:40:21;;;;;;;25.40;7.47;;;4.00;99.90;;;;;;5046350;28;20451;-64
2020/12/10 12:42:48;;;;;;;19.65;7.28;;;4.00;99.90;;;;;;5078567;28;20075;-64
2020/12/10 12:45:15;;;;;;;19.08;6.25;;;4.00;99.90;;;;;;5067425;28;20041;-64
2020/12/10 12:47:42;;;;;;;17.27;7.35;;;4.10;99.90;;;;;;5062226;28;20052;-65
2020/12/10 12:50:09;;;;;;;20.42;7.32;;;4.10;99.90;;;;;;5062176;28;20045;-64
2020/12/10 12:52:38;;;;;;;18.63;7.38;;;4.10;99.90;;;;;;5065030;28;20094;-64
2020/12/10 12:55:05;;;;;;;20.67;8.38;;;4.10;99.90;;;;;;5058826;28;20140;-64
2020/12/10 12:57:31;;;;;;;20.80;7.93;;;4.10;99.90;;;;;;5064556;28;20033;-64
2020/12/10 12:59:58;;;;;;;19.88;7.70;;;4.10;99.90;;;;;;5065717;28;20395;-62
2020/12/10 13:02:24;;;;;;;16.27;6.68;;;4.10;99.90;;;;;;5064941;28;20573;-64